createdAt,value
2019-01-30T00:00:38.925Z,11.21
2019-01-30T00:03:10.425Z,11.03
2019-01-30T00:05:42.024Z,11.09
2019-01-30T00:08:13.489Z,11.09
2019-01-30T00:10:45.064Z,11.24
2019-01-30T00:13:16.522Z,11.28
2019-01-30T00:15:56.129Z,11.28
2019-01-30T00:18:20.791Z,11.25
2019-01-30T00:20:52.099Z,11.15
2019-01-30T00:23:23.538Z,11.15
2019-01-30T00:25:54.879Z,11.11
2019-01-30T00:28:26.310Z,10.85
2019-01-30T00:30:58.081Z,10.85
2019-01-30T00:33:29.623Z,11.14
2019-01-30T00:36:01.472Z,11.14
2019-01-30T00:38:32.814Z,11.04
2019-01-30T00:41:04.364Z,10.91
2019-01-30T00:43:35.764Z,11.09
2019-01-30T00:46:07.039Z,11.08
2019-01-30T00:48:38.463Z,11.08
2019-01-30T00:51:11.117Z,10.79
2019-01-30T00:53:42.816Z,10.85
2019-01-30T00:56:14.374Z,10.85
2019-01-30T00:58:45.560Z,10.69
2019-01-30T01:01:17.376Z,10.54
2019-01-30T01:03:48.677Z,10.94
2019-01-30T01:06:20.307Z,10.94
2019-01-30T01:08:51.843Z,11.02
2019-01-30T01:11:23.603Z,11.01
2019-01-30T01:13:54.970Z,10.86
2019-01-30T01:16:26.384Z,10.59
2019-01-30T01:18:57.565Z,10.56
2019-01-30T01:21:29.275Z,10.55
2019-01-30T01:24:00.627Z,10.84
2019-01-30T01:26:32.117Z,10.98
2019-01-30T01:29:03.913Z,10.72
2019-01-30T01:31:35.358Z,10.65
2019-01-30T01:34:07.077Z,10.65
2019-01-30T01:36:38.435Z,10.54
2019-01-30T01:39:11.184Z,10.54
2019-01-30T01:41:43.693Z,10.52
2019-01-30T01:44:15.521Z,10.52
2019-01-30T01:46:48.854Z,10.59
2019-01-30T01:49:20.759Z,10.67
2019-01-30T01:51:52.317Z,10.53
2019-01-30T01:54:23.838Z,10.53
2019-01-30T01:56:55.204Z,10.69
2019-01-30T01:59:26.610Z,10.69
2019-01-30T02:01:57.863Z,10.79
2019-01-30T02:04:29.381Z,10.79
2019-01-30T02:07:00.549Z,10.62
2019-01-30T02:09:32.750Z,10.90
2019-01-30T02:12:04.319Z,10.71
2019-01-30T02:14:36.062Z,10.89
2019-01-30T02:17:07.546Z,10.89
2019-01-30T02:19:39.343Z,11.22
2019-01-30T02:22:10.896Z,11.19
2019-01-30T02:24:42.428Z,11.46
2019-01-30T02:27:14.067Z,11.85
2019-01-30T02:29:45.973Z,11.85
2019-01-30T02:32:17.676Z,12.15
2019-01-30T02:34:49.539Z,11.98
2019-01-30T02:37:21.094Z,11.98
2019-01-30T02:39:52.971Z,12.14
2019-01-30T02:42:24.790Z,12.21
2019-01-30T02:44:56.250Z,12.45
2019-01-30T02:47:27.621Z,12.45
2019-01-30T02:49:59.149Z,12.74
2019-01-30T02:52:30.497Z,12.78
2019-01-30T02:55:02.166Z,12.98
2019-01-30T02:57:33.657Z,12.98
2019-01-30T03:00:06.577Z,13.14
2019-01-30T03:02:38.411Z,13.05
2019-01-30T03:05:11.729Z,13.31
2019-01-30T03:07:43.321Z,13.31
2019-01-30T03:10:17.558Z,13.36
2019-01-30T03:12:49.051Z,13.45
2019-01-30T03:15:20.770Z,13.52
2019-01-30T03:17:52.640Z,13.48
2019-01-30T03:20:25.690Z,13.52
2019-01-30T03:22:57.161Z,13.60
2019-01-30T03:25:29.864Z,13.77
2019-01-30T03:28:01.517Z,13.62
2019-01-30T03:30:33.761Z,13.84
2019-01-30T03:33:05.231Z,13.84
2019-01-30T03:35:36.777Z,14.08
2019-01-30T03:38:08.534Z,14.08
2019-01-30T03:40:40.874Z,14.17
2019-01-30T03:43:12.179Z,14.17
2019-01-30T03:45:44.209Z,15.07
2019-01-30T03:48:15.649Z,15.07
2019-01-30T03:50:47.391Z,15.45
2019-01-30T03:53:18.876Z,15.15
2019-01-30T03:55:50.213Z,15.16
2019-01-30T03:58:22.779Z,15.16
2019-01-30T04:00:54.333Z,15.38
2019-01-30T04:03:26.064Z,15.54
2019-01-30T04:05:57.887Z,15.54
2019-01-30T04:08:29.274Z,15.61
2019-01-30T04:11:01.004Z,15.61
2019-01-30T04:13:32.378Z,15.73
2019-01-30T04:16:04.003Z,15.73
2019-01-30T04:18:36.507Z,16.03
2019-01-30T04:21:08.269Z,16.03
2019-01-30T04:23:43.253Z,15.87
2019-01-30T04:26:14.778Z,15.81
2019-01-30T04:28:46.316Z,15.81
2019-01-30T04:31:17.662Z,15.74
2019-01-30T04:33:49.189Z,15.83
2019-01-30T04:36:20.715Z,15.91
2019-01-30T04:38:51.853Z,15.91
2019-01-30T04:41:23.255Z,15.91
2019-01-30T04:43:54.553Z,15.89
2019-01-30T04:46:25.786Z,15.97
2019-01-30T04:48:57.453Z,15.95
2019-01-30T04:51:28.851Z,15.82
2019-01-30T04:54:00.600Z,15.89
2019-01-30T04:56:31.963Z,16.07
2019-01-30T04:59:03.722Z,16.06
2019-01-30T05:01:35.528Z,16.14
2019-01-30T05:04:06.947Z,16.14
2019-01-30T05:06:38.335Z,16.25
2019-01-30T05:09:11.037Z,16.25
2019-01-30T05:11:42.447Z,16.22
2019-01-30T05:14:14.090Z,16.27
2019-01-30T05:16:45.444Z,16.27
2019-01-30T05:19:17.485Z,16.38
2019-01-30T05:21:48.926Z,16.44
2019-01-30T05:24:20.686Z,16.44
2019-01-30T05:26:52.170Z,16.39
2019-01-30T05:29:23.524Z,16.39
2019-01-30T05:32:01.367Z,16.59
2019-01-30T05:34:28.022Z,16.59
2019-01-30T05:36:59.220Z,16.60
2019-01-30T05:39:30.793Z,16.51
2019-01-30T05:42:02.096Z,16.51
2019-01-30T05:44:33.785Z,16.50
2019-01-30T05:47:05.117Z,16.50
2019-01-30T05:49:36.640Z,16.67
2019-01-30T05:52:08.244Z,16.61
2019-01-30T05:54:40.071Z,16.61
2019-01-30T05:57:11.668Z,16.78
2019-01-30T05:59:43.831Z,16.93
2019-01-30T06:02:15.893Z,17.16
2019-01-30T06:04:47.477Z,17.16
2019-01-30T06:07:18.693Z,17.05
2019-01-30T06:09:50.252Z,17.05
2019-01-30T06:12:21.955Z,17.27
2019-01-30T06:14:53.399Z,17.24
2019-01-30T06:17:24.724Z,17.15
2019-01-30T06:19:55.966Z,17.11
2019-01-30T06:22:27.555Z,17.22
2019-01-30T06:24:59.107Z,17.52
2019-01-30T06:27:30.923Z,17.52
2019-01-30T06:30:02.389Z,17.25
2019-01-30T06:32:33.857Z,17.44
2019-01-30T06:35:05.279Z,17.44
2019-01-30T06:37:36.908Z,17.78
2019-01-30T06:40:11.263Z,17.39
2019-01-30T06:42:43.109Z,17.51
2019-01-30T06:45:14.909Z,17.51
2019-01-30T06:47:46.210Z,17.51
2019-01-30T06:50:17.619Z,17.62
2019-01-30T06:52:48.834Z,17.50
2019-01-30T06:55:20.348Z,17.75
2019-01-30T06:57:52.114Z,17.58
2019-01-30T07:00:27.388Z,17.58
2019-01-30T07:02:59.594Z,17.58
2019-01-30T07:05:30.862Z,17.52
2019-01-30T07:08:02.442Z,17.69
2019-01-30T07:10:34.325Z,17.69
2019-01-30T07:13:05.959Z,17.75
2019-01-30T07:15:37.370Z,17.75
2019-01-30T07:18:10.134Z,18.01
2019-01-30T07:20:41.789Z,18.04
2019-01-30T07:23:12.978Z,18.08
2019-01-30T07:25:44.517Z,18.01
2019-01-30T07:28:15.697Z,18.01
2019-01-30T07:30:47.379Z,17.93
2019-01-30T07:33:18.780Z,18.16
2019-01-30T07:35:50.381Z,18.00
2019-01-30T07:38:21.847Z,18.06
2019-01-30T07:40:53.324Z,18.17
2019-01-30T07:43:25.042Z,18.01
2019-01-30T07:45:56.911Z,18.12
2019-01-30T07:48:29.010Z,18.12
2019-01-30T07:51:00.782Z,18.13
2019-01-30T07:53:32.294Z,18.20
2019-01-30T07:56:03.831Z,18.14
2019-01-30T07:58:35.416Z,18.46
2019-01-30T08:01:06.792Z,18.17
2019-01-30T08:03:39.061Z,18.21
2019-01-30T08:06:10.417Z,18.89
2019-01-30T08:08:41.981Z,18.68
2019-01-30T08:11:13.356Z,18.68
2019-01-30T08:13:45.074Z,18.54
2019-01-30T08:16:16.463Z,18.49
2019-01-30T08:18:47.857Z,18.69
2019-01-30T08:21:19.514Z,18.69
2019-01-30T08:23:53.375Z,18.58
2019-01-30T08:26:25.695Z,18.42
2019-01-30T08:28:57.819Z,18.42
2019-01-30T08:31:29.150Z,18.47
2019-01-30T08:34:00.896Z,18.62
2019-01-30T08:36:32.702Z,18.62
2019-01-30T08:39:06.340Z,18.71
2019-01-30T08:41:38.424Z,18.71
2019-01-30T08:44:09.900Z,18.34
2019-01-30T08:46:41.373Z,18.36
2019-01-30T08:49:13.038Z,18.36
2019-01-30T08:51:44.543Z,18.50
2019-01-30T08:54:16.072Z,18.55
2019-01-30T08:56:53.125Z,18.58
2019-01-30T08:59:22.048Z,18.59
2019-01-30T09:01:53.715Z,18.51
2019-01-30T09:04:25.115Z,18.51
2019-01-30T09:06:56.558Z,18.54
2019-01-30T09:09:27.986Z,18.69
2019-01-30T09:11:59.819Z,18.53
2019-01-30T09:14:31.298Z,18.55
2019-01-30T09:17:06.552Z,18.55
2019-01-30T09:19:36.033Z,18.64
2019-01-30T09:22:08.271Z,18.64
2019-01-30T09:24:39.584Z,18.62
2019-01-30T09:27:10.872Z,18.62
2019-01-30T09:29:42.712Z,18.70
2019-01-30T09:32:14.431Z,18.66
2019-01-30T09:34:45.635Z,18.87
2019-01-30T09:37:17.064Z,18.87
2019-01-30T09:39:48.728Z,18.77
2019-01-30T09:42:20.445Z,19.07
2019-01-30T09:44:52.013Z,18.66
2019-01-30T09:47:23.263Z,18.66
2019-01-30T09:49:54.936Z,18.61
2019-01-30T09:52:27.583Z,18.56
2019-01-30T09:54:59.031Z,18.65
2019-01-30T09:57:30.773Z,18.65
2019-01-30T10:00:02.401Z,18.72
2019-01-30T10:02:34.144Z,18.72
2019-01-30T10:05:07.222Z,18.73
2019-01-30T10:07:38.838Z,18.66
2019-01-30T10:10:13.843Z,18.75
2019-01-30T10:12:45.361Z,18.75
2019-01-30T10:15:18.831Z,18.66
2019-01-30T10:17:50.292Z,18.66
2019-01-30T10:20:24.092Z,18.83
2019-01-30T10:22:56.022Z,18.70
2019-01-30T10:25:27.818Z,18.89
2019-01-30T10:27:59.141Z,18.89
2019-01-30T10:30:33.233Z,18.76
2019-01-30T10:33:05.157Z,18.85
2019-01-30T10:35:37.220Z,18.87
2019-01-30T10:38:08.592Z,18.74
2019-01-30T10:40:40.199Z,18.73
2019-01-30T10:43:11.967Z,18.75
2019-01-30T10:45:43.473Z,18.76
2019-01-30T10:48:14.807Z,18.76
2019-01-30T10:50:46.286Z,18.87
2019-01-30T10:53:17.768Z,18.82
2019-01-30T10:55:49.322Z,18.82
2019-01-30T10:58:20.981Z,18.85
2019-01-30T11:00:53.484Z,18.88
2019-01-30T11:03:25.567Z,18.82
2019-01-30T11:05:57.466Z,18.82
2019-01-30T11:08:29.109Z,18.80
2019-01-30T11:11:07.594Z,18.76
2019-01-30T11:13:33.907Z,18.76
2019-01-30T11:16:05.498Z,18.78
2019-01-30T11:18:36.964Z,18.75
2019-01-30T11:21:08.296Z,18.71
2019-01-30T11:23:40.352Z,18.71
2019-01-30T11:26:11.987Z,18.73
2019-01-30T11:28:43.278Z,18.70
2019-01-30T11:31:14.818Z,18.70
2019-01-30T11:33:46.347Z,18.49
2019-01-30T11:36:18.491Z,18.49
2019-01-30T11:38:51.396Z,18.55
2019-01-30T11:41:22.953Z,18.55
2019-01-30T11:43:54.423Z,18.38
2019-01-30T11:46:26.098Z,18.30
2019-01-30T11:48:57.760Z,18.32
2019-01-30T11:51:29.421Z,18.39
2019-01-30T11:54:01.306Z,18.37
2019-01-30T11:56:32.782Z,18.37
2019-01-30T11:59:04.601Z,18.36
2019-01-30T12:01:36.237Z,18.28
2019-01-30T12:04:17.482Z,18.31
2019-01-30T12:06:41.662Z,18.24
2019-01-30T12:09:13.595Z,18.24
2019-01-30T12:11:45.331Z,18.19
2019-01-30T12:14:16.848Z,18.32
2019-01-30T12:16:48.612Z,18.32
2019-01-30T12:19:20.331Z,18.25
2019-01-30T12:21:51.872Z,18.29
2019-01-30T12:24:23.168Z,18.29
2019-01-30T12:26:54.521Z,18.50
2019-01-30T12:29:25.966Z,18.49
2019-01-30T12:31:57.434Z,18.43
2019-01-30T12:34:28.799Z,18.43
2019-01-30T12:36:59.987Z,18.46
2019-01-30T12:39:31.390Z,18.42
2019-01-30T12:42:02.648Z,18.42
2019-01-30T12:44:33.935Z,18.39
2019-01-30T12:47:06.265Z,18.44
2019-01-30T12:49:38.541Z,18.45
2019-01-30T12:52:09.978Z,18.48
2019-01-30T12:54:41.282Z,18.43
2019-01-30T12:57:12.724Z,18.44
2019-01-30T12:59:44.093Z,18.44
2019-01-30T13:02:15.370Z,18.44
2019-01-30T13:04:46.703Z,18.42
2019-01-30T13:07:18.110Z,18.40
2019-01-30T13:09:49.359Z,18.40
2019-01-30T13:12:20.847Z,18.36
2019-01-30T13:14:52.396Z,18.42
2019-01-30T13:17:24.219Z,18.43
2019-01-30T13:19:55.730Z,18.39
2019-01-30T13:22:27.011Z,18.35
2019-01-30T13:24:58.226Z,18.35
2019-01-30T13:27:29.353Z,18.34
2019-01-30T13:30:00.848Z,18.38
2019-01-30T13:32:32.509Z,18.38
2019-01-30T13:35:03.821Z,18.32
2019-01-30T13:37:35.059Z,18.32
2019-01-30T13:40:08.230Z,18.32
2019-01-30T13:42:39.825Z,18.46
2019-01-30T13:45:12.195Z,18.40
2019-01-30T13:47:43.888Z,18.27
2019-01-30T13:50:18.774Z,18.27
2019-01-30T13:52:50.011Z,18.27
2019-01-30T13:55:21.758Z,18.34
2019-01-30T13:57:53.446Z,18.34
2019-01-30T14:00:27.538Z,18.35
2019-01-30T14:02:59.091Z,18.41
2019-01-30T14:05:30.976Z,18.41
2019-01-30T14:08:02.424Z,18.35
2019-01-30T14:10:34.201Z,18.48
2019-01-30T14:13:05.897Z,18.47
2019-01-30T14:15:37.362Z,18.47
2019-01-30T14:18:09.387Z,18.26
2019-01-30T14:20:40.833Z,18.20
2019-01-30T14:23:12.752Z,18.20
2019-01-30T14:25:44.075Z,18.24
2019-01-30T14:28:15.836Z,18.22
2019-01-30T14:30:47.380Z,18.22
2019-01-30T14:33:18.973Z,18.17
2019-01-30T14:35:50.314Z,18.04
2019-01-30T14:38:22.273Z,18.00
2019-01-30T14:40:53.629Z,17.96
2019-01-30T14:43:25.087Z,17.96
2019-01-30T14:45:57.009Z,17.00
2019-01-30T14:48:28.437Z,16.73
2019-01-30T14:50:59.893Z,16.73
2019-01-30T14:53:31.188Z,16.61
2019-01-30T14:56:02.807Z,16.61
2019-01-30T14:58:34.048Z,16.60
2019-01-30T15:01:05.748Z,16.47
2019-01-30T15:03:37.051Z,16.47
2019-01-30T15:06:08.570Z,16.46
2019-01-30T15:08:40.290Z,16.22
2019-01-30T15:11:12.075Z,16.22
2019-01-30T15:13:43.761Z,16.23
2019-01-30T15:16:15.098Z,16.26
2019-01-30T15:18:46.501Z,16.15
2019-01-30T15:21:17.686Z,16.15
2019-01-30T15:23:49.299Z,16.25
2019-01-30T15:26:21.092Z,16.39
2019-01-30T15:28:52.629Z,16.44
2019-01-30T15:31:24.052Z,16.49
2019-01-30T15:33:55.561Z,16.49
2019-01-30T15:36:26.879Z,16.33
2019-01-30T15:38:58.790Z,16.47
2019-01-30T15:41:30.303Z,16.39
2019-01-30T15:44:02.126Z,16.31
2019-01-30T15:46:33.713Z,16.41
2019-01-30T15:49:06.382Z,16.34
2019-01-30T15:51:39.482Z,16.34
2019-01-30T15:54:11.023Z,16.43
2019-01-30T15:56:42.978Z,16.14
2019-01-30T15:59:14.812Z,16.27
2019-01-30T16:01:47.250Z,16.29
2019-01-30T16:04:20.991Z,16.24
2019-01-30T16:06:52.649Z,16.03
2019-01-30T16:09:24.141Z,15.89
2019-01-30T16:11:55.808Z,15.89
2019-01-30T16:14:27.645Z,15.76
2019-01-30T16:16:59.172Z,15.67
2019-01-30T16:19:30.747Z,15.68
2019-01-30T16:22:02.178Z,15.68
2019-01-30T16:24:34.826Z,15.73
2019-01-30T16:27:06.545Z,15.58
2019-01-30T16:29:38.030Z,15.79
2019-01-30T16:32:09.523Z,15.68
2019-01-30T16:34:41.463Z,15.61
2019-01-30T16:37:13.098Z,15.80
2019-01-30T16:39:44.881Z,15.80
2019-01-30T16:42:16.654Z,15.63
2019-01-30T16:44:47.978Z,15.69
2019-01-30T16:47:19.322Z,15.81
2019-01-30T16:49:50.652Z,15.81
2019-01-30T16:52:21.779Z,15.67
2019-01-30T16:54:53.125Z,15.71
2019-01-30T16:57:24.783Z,15.84
2019-01-30T16:59:56.547Z,15.74
2019-01-30T17:02:28.075Z,15.74
2019-01-30T17:04:59.387Z,15.53
2019-01-30T17:07:31.218Z,15.53
2019-01-30T17:10:02.615Z,15.71
2019-01-30T17:12:35.424Z,15.77
2019-01-30T17:15:08.709Z,15.77
2019-01-30T17:17:40.690Z,15.66
2019-01-30T17:20:16.215Z,15.66
2019-01-30T17:22:47.860Z,15.70
2019-01-30T17:25:19.451Z,15.90
2019-01-30T17:27:51.298Z,15.96
2019-01-30T17:30:31.914Z,15.87
2019-01-30T17:33:03.529Z,15.95
2019-01-30T17:35:35.193Z,15.87
2019-01-30T17:38:06.848Z,15.87
2019-01-30T17:40:39.144Z,15.99
2019-01-30T17:43:10.666Z,15.73
2019-01-30T17:45:42.600Z,15.73
2019-01-30T17:48:14.879Z,15.74
2019-01-30T17:50:46.575Z,15.61
2019-01-30T17:53:18.212Z,15.35
2019-01-30T17:55:49.703Z,15.27
2019-01-30T17:58:21.323Z,15.20
2019-01-30T18:01:05.014Z,15.34
2019-01-30T18:03:36.943Z,15.40
2019-01-30T18:06:08.592Z,15.37
2019-01-30T18:08:40.353Z,15.53
2019-01-30T18:11:11.888Z,15.58
2019-01-30T18:13:45.204Z,15.40
2019-01-30T18:16:16.791Z,15.40
2019-01-30T18:18:48.504Z,15.40
2019-01-30T18:21:19.970Z,15.50
2019-01-30T18:23:51.574Z,15.55
2019-01-30T18:26:23.226Z,15.40
2019-01-30T18:28:55.231Z,15.40
2019-01-30T18:31:27.100Z,15.47
2019-01-30T18:33:58.771Z,15.08
2019-01-30T18:36:40.382Z,15.24
2019-01-30T18:39:04.178Z,15.22
2019-01-30T18:41:37.450Z,15.22
2019-01-30T18:44:08.865Z,15.26
2019-01-30T18:46:41.635Z,15.29
2019-01-30T18:49:13.243Z,15.29
2019-01-30T18:51:44.965Z,15.53
2019-01-30T18:54:16.457Z,15.53
2019-01-30T18:56:48.266Z,15.22
2019-01-30T18:59:20.080Z,15.29
2019-01-30T19:01:51.476Z,15.29
2019-01-30T19:04:23.334Z,15.29
2019-01-30T19:06:54.806Z,15.24
2019-01-30T19:09:26.620Z,15.39
2019-01-30T19:11:57.928Z,15.39
2019-01-30T19:14:29.632Z,15.59
2019-01-30T19:17:01.205Z,15.50
2019-01-30T19:19:32.751Z,15.49
2019-01-30T19:22:04.526Z,15.49
2019-01-30T19:24:36.322Z,15.42
2019-01-30T19:27:07.681Z,15.40
2019-01-30T19:29:39.228Z,15.14
2019-01-30T19:32:11.124Z,15.31
2019-01-30T19:34:43.563Z,15.23
2019-01-30T19:37:14.819Z,15.13
2019-01-30T19:39:46.192Z,14.97
2019-01-30T19:42:17.783Z,14.94
2019-01-30T19:44:49.301Z,14.94
2019-01-30T19:47:20.843Z,14.79
2019-01-30T19:49:52.654Z,14.85
2019-01-30T19:52:24.454Z,14.85
2019-01-30T19:54:55.713Z,14.71
2019-01-30T19:57:26.888Z,14.67
2019-01-30T19:59:58.397Z,14.67
2019-01-30T20:02:29.952Z,14.65
2019-01-30T20:05:01.529Z,14.62
2019-01-30T20:07:33.152Z,14.62
2019-01-30T20:10:05.531Z,14.73
2019-01-30T20:12:37.133Z,14.70
2019-01-30T20:15:09.924Z,14.85
2019-01-30T20:17:41.274Z,15.02
2019-01-30T20:20:13.752Z,15.02
2019-01-30T20:22:45.425Z,15.07
2019-01-30T20:25:19.475Z,15.06
2019-01-30T20:27:51.138Z,15.06
2019-01-30T20:30:23.810Z,15.19
2019-01-30T20:32:55.711Z,15.12
2019-01-30T20:35:26.977Z,15.12
2019-01-30T20:37:58.813Z,15.28
2019-01-30T20:40:30.524Z,15.28
2019-01-30T20:43:01.954Z,15.06
2019-01-30T20:45:34.162Z,15.18
2019-01-30T20:48:06.033Z,14.86
2019-01-30T20:50:37.626Z,15.05
2019-01-30T20:53:09.587Z,14.93
2019-01-30T20:55:40.935Z,15.06
2019-01-30T20:58:12.311Z,15.12
2019-01-30T21:00:43.724Z,14.50
2019-01-30T21:03:16.273Z,14.77
2019-01-30T21:05:48.949Z,14.77
2019-01-30T21:08:20.615Z,14.92
2019-01-30T21:10:51.885Z,14.78
2019-01-30T21:13:23.249Z,14.78
2019-01-30T21:15:54.841Z,14.55
2019-01-30T21:18:26.352Z,14.41
2019-01-30T21:20:57.871Z,14.38
2019-01-30T21:23:29.190Z,14.48
2019-01-30T21:26:00.518Z,14.67
2019-01-30T21:28:31.832Z,14.48
2019-01-30T21:31:03.286Z,14.56
2019-01-30T21:33:34.647Z,14.56
2019-01-30T21:36:06.510Z,14.38
2019-01-30T21:38:38.156Z,14.38
2019-01-30T21:41:09.681Z,14.35
2019-01-30T21:43:40.933Z,14.38
2019-01-30T21:46:12.295Z,14.13
2019-01-30T21:48:43.851Z,14.13
2019-01-30T21:51:15.471Z,14.30
2019-01-30T21:53:47.096Z,14.45
2019-01-30T21:56:18.739Z,14.45
2019-01-30T21:58:50.306Z,14.62
2019-01-30T22:01:21.460Z,14.51
2019-01-30T22:03:52.694Z,14.43
2019-01-30T22:06:24.081Z,14.43
2019-01-30T22:08:55.331Z,14.50
2019-01-30T22:11:26.760Z,14.73
2019-01-30T22:13:58.030Z,14.42
2019-01-30T22:16:29.418Z,14.52
2019-01-30T22:19:00.895Z,14.58
2019-01-30T22:21:32.333Z,14.67
2019-01-30T22:24:05.527Z,14.57
2019-01-30T22:26:36.883Z,14.59
2019-01-30T22:29:08.562Z,14.67
2019-01-30T22:31:40.232Z,14.68
2019-01-30T22:34:13.380Z,14.55
2019-01-30T22:36:45.233Z,14.43
2019-01-30T22:39:16.844Z,14.62
2019-01-30T22:41:48.521Z,14.51
2019-01-30T22:44:21.000Z,14.51
2019-01-30T22:46:52.637Z,14.49
2019-01-30T22:49:24.049Z,14.36
2019-01-30T22:51:55.436Z,14.38
2019-01-30T22:54:26.990Z,14.31
2019-01-30T22:56:58.504Z,14.31
2019-01-30T22:59:30.079Z,14.23
2019-01-30T23:02:04.765Z,14.23
2019-01-30T23:05:15.514Z,14.24
2019-01-30T23:08:29.656Z,14.06
2019-01-30T23:12:01.960Z,14.16
2019-01-30T23:14:46.887Z,13.96
2019-01-30T23:18:01.837Z,13.96
2019-01-30T23:20:48.265Z,13.85
2019-01-30T23:23:51.379Z,13.85
2019-01-30T23:26:47.284Z,14.01
2019-01-30T23:30:02.203Z,14.01
2019-01-30T23:33:03.631Z,13.94
2019-01-30T23:36:08.232Z,13.94
2019-01-30T23:39:09.902Z,14.06
2019-01-30T23:42:18.370Z,13.96
2019-01-30T23:45:27.405Z,13.96
2019-01-30T23:48:34.004Z,14.00
2019-01-30T23:51:48.362Z,14.06
2019-01-30T23:54:54.914Z,13.90
2019-01-30T23:58:03.748Z,13.85
